sensor_id;sensor_type;location;lat;lon;timestamp;P1;durP1;ratioP1;P2;durP2;ratioP2
35245;SDS011;21379;50.962;6.960;2023-11-18T00:00:29;63.72;;;16.95;;
35245;SDS011;21379;50.962;6.960;2023-11-18T00:02:55;67.38;;;19.05;;
35245;SDS011;21379;50.962;6.960;2023-11-18T00:05:22;64.00;;;18.15;;
35245;SDS011;21379;50.962;6.960;2023-11-18T00:07:49;63.20;;;19.08;;
35245;SDS011;21379;50.962;6.960;2023-11-18T00:10:17;64.53;;;17.00;;
35245;SDS011;21379;50.962;6.960;2023-11-18T00:12:44;68.35;;;17.75;;
35245;SDS011;21379;50.962;6.960;2023-11-18T00:15:12;59.72;;;18.40;;
35245;SDS011;21379;50.962;6.960;2023-11-18T00:17:38;62.50;;;18.70;;
35245;SDS011;21379;50.962;6.960;2023-11-18T00:20:06;59.38;;;16.48;;
35245;SDS011;21379;50.962;6.960;2023-11-18T00:22:37;64.50;;;17.65;;
35245;SDS011;21379;50.962;6.960;2023-11-18T00:25:05;47.55;;;14.95;;
35245;SDS011;21379;50.962;6.960;2023-11-18T00:30:01;54.80;;;14.15;;
35245;SDS011;21379;50.962;6.960;2023-11-18T00:32:30;46.22;;;15.95;;
35245;SDS011;21379;50.962;6.960;2023-11-18T00:34:57;54.35;;;16.13;;
35245;SDS011;21379;50.962;6.960;2023-11-18T00:37:24;45.17;;;13.68;;
35245;SDS011;21379;50.962;6.960;2023-11-18T00:39:51;48.28;;;14.93;;
35245;SDS011;21379;50.962;6.960;2023-11-18T00:42:18;59.20;;;16.33;;
35245;SDS011;21379;50.962;6.960;2023-11-18T00:44:47;58.80;;;16.27;;
35245;SDS011;21379;50.962;6.960;2023-11-18T00:52:07;60.63;;;16.50;;
35245;SDS011;21379;50.962;6.960;2023-11-18T00:54:34;55.45;;;15.32;;
35245;SDS011;21379;50.962;6.960;2023-11-18T00:57:01;66.63;;;17.70;;
35245;SDS011;21379;50.962;6.960;2023-11-18T00:59:28;66.55;;;17.58;;
35245;SDS011;21379;50.962;6.960;2023-11-18T01:01:57;64.43;;;17.42;;
35245;SDS011;21379;50.962;6.960;2023-11-18T01:04:24;61.47;;;16.83;;
35245;SDS011;21379;50.962;6.960;2023-11-18T01:06:52;66.20;;;18.65;;
35245;SDS011;21379;50.962;6.960;2023-11-18T01:09:18;65.97;;;16.98;;
35245;SDS011;21379;50.962;6.960;2023-11-18T01:11:45;68.22;;;17.83;;
35245;SDS011;21379;50.962;6.960;2023-11-18T01:14:12;53.67;;;15.90;;
35245;SDS011;21379;50.962;6.960;2023-11-18T01:16:38;58.22;;;17.13;;
35245;SDS011;21379;50.962;6.960;2023-11-18T01:19:06;65.53;;;18.17;;
35245;SDS011;21379;50.962;6.960;2023-11-18T01:21:34;67.70;;;17.45;;
35245;SDS011;21379;50.962;6.960;2023-11-18T01:24:01;56.53;;;17.20;;
35245;SDS011;21379;50.962;6.960;2023-11-18T01:26:28;55.92;;;15.65;;
35245;SDS011;21379;50.962;6.960;2023-11-18T01:28:55;68.22;;;17.75;;
35245;SDS011;21379;50.962;6.960;2023-11-18T01:31:22;52.97;;;18.23;;
35245;SDS011;21379;50.962;6.960;2023-11-18T01:33:48;60.45;;;17.27;;
35245;SDS011;21379;50.962;6.960;2023-11-18T01:36:17;64.00;;;18.20;;
35245;SDS011;21379;50.962;6.960;2023-11-18T01:38:44;67.03;;;17.80;;
35245;SDS011;21379;50.962;6.960;2023-11-18T01:41:11;58.95;;;18.00;;
35245;SDS011;21379;50.962;6.960;2023-11-18T01:43:38;60.17;;;17.35;;
35245;SDS011;21379;50.962;6.960;2023-11-18T01:46:07;55.03;;;16.58;;
35245;SDS011;21379;50.962;6.960;2023-11-18T01:48:36;56.80;;;16.88;;
35245;SDS011;21379;50.962;6.960;2023-11-18T01:51:03;63.63;;;17.13;;
35245;SDS011;21379;50.962;6.960;2023-11-18T01:53:32;48.38;;;14.27;;
35245;SDS011;21379;50.962;6.960;2023-11-18T01:56:02;51.03;;;15.23;;
35245;SDS011;21379;50.962;6.960;2023-11-18T01:58:30;53.17;;;17.58;;
35245;SDS011;21379;50.962;6.960;2023-11-18T02:00:57;63.63;;;16.88;;
35245;SDS011;21379;50.962;6.960;2023-11-18T02:03:23;44.70;;;16.70;;
35245;SDS011;21379;50.962;6.960;2023-11-18T02:05:52;60.15;;;17.13;;
35245;SDS011;21379;50.962;6.960;2023-11-18T02:08:19;45.67;;;15.20;;
35245;SDS011;21379;50.962;6.960;2023-11-18T02:10:48;53.72;;;16.38;;
35245;SDS011;21379;50.962;6.960;2023-11-18T02:13:19;43.97;;;16.45;;
35245;SDS011;21379;50.962;6.960;2023-11-18T02:15:51;55.88;;;16.40;;
35245;SDS011;21379;50.962;6.960;2023-11-18T02:18:19;55.13;;;16.05;;
35245;SDS011;21379;50.962;6.960;2023-11-18T02:20:47;54.72;;;16.25;;
35245;SDS011;21379;50.962;6.960;2023-11-18T02:23:13;53.42;;;17.05;;
35245;SDS011;21379;50.962;6.960;2023-11-18T02:25:44;43.60;;;15.70;;
35245;SDS011;21379;50.962;6.960;2023-11-18T02:28:14;44.78;;;15.55;;
35245;SDS011;21379;50.962;6.960;2023-11-18T02:30:40;56.15;;;15.85;;
35245;SDS011;21379;50.962;6.960;2023-11-18T02:33:11;46.83;;;16.73;;
35245;SDS011;21379;50.962;6.960;2023-11-18T02:35:45;51.53;;;15.70;;
35245;SDS011;21379;50.962;6.960;2023-11-18T02:38:15;54.28;;;15.00;;
35245;SDS011;21379;50.962;6.960;2023-11-18T02:40:46;51.08;;;15.80;;
35245;SDS011;21379;50.962;6.960;2023-11-18T02:43:16;52.58;;;15.25;;
35245;SDS011;21379;50.962;6.960;2023-11-18T02:45:43;48.05;;;14.90;;
35245;SDS011;21379;50.962;6.960;2023-11-18T02:48:11;53.70;;;15.00;;
35245;SDS011;21379;50.962;6.960;2023-11-18T02:50:39;49.72;;;14.68;;
35245;SDS011;21379;50.962;6.960;2023-11-18T02:55:35;44.40;;;15.27;;
35245;SDS011;21379;50.962;6.960;2023-11-18T02:58:03;54.83;;;16.52;;
35245;SDS011;21379;50.962;6.960;2023-11-18T03:00:30;57.65;;;17.10;;
35245;SDS011;21379;50.962;6.960;2023-11-18T03:02:57;50.30;;;16.25;;
35245;SDS011;21379;50.962;6.960;2023-11-18T03:05:24;56.47;;;16.70;;
35245;SDS011;21379;50.962;6.960;2023-11-18T03:07:52;51.80;;;15.40;;
35245;SDS011;21379;50.962;6.960;2023-11-18T03:10:22;54.75;;;16.98;;
35245;SDS011;21379;50.962;6.960;2023-11-18T03:12:49;47.88;;;14.50;;
35245;SDS011;21379;50.962;6.960;2023-11-18T03:15:18;58.72;;;16.38;;
35245;SDS011;21379;50.962;6.960;2023-11-18T03:17:47;46.97;;;16.27;;
35245;SDS011;21379;50.962;6.960;2023-11-18T03:20:15;49.67;;;14.95;;
35245;SDS011;21379;50.962;6.960;2023-11-18T03:22:42;49.63;;;16.00;;
35245;SDS011;21379;50.962;6.960;2023-11-18T03:25:10;57.10;;;15.75;;
35245;SDS011;21379;50.962;6.960;2023-11-18T03:27:37;49.92;;;15.85;;
35245;SDS011;21379;50.962;6.960;2023-11-18T03:30:04;50.13;;;16.30;;
35245;SDS011;21379;50.962;6.960;2023-11-18T03:32:34;50.58;;;15.90;;
35245;SDS011;21379;50.962;6.960;2023-11-18T03:35:01;45.78;;;14.77;;
35245;SDS011;21379;50.962;6.960;2023-11-18T03:39:56;55.70;;;15.75;;
35245;SDS011;21379;50.962;6.960;2023-11-18T03:42:23;44.65;;;16.98;;
35245;SDS011;21379;50.962;6.960;2023-11-18T03:44:49;48.33;;;14.52;;
35245;SDS011;21379;50.962;6.960;2023-11-18T03:47:16;49.60;;;16.50;;
35245;SDS011;21379;50.962;6.960;2023-11-18T03:49:44;50.47;;;16.08;;
35245;SDS011;21379;50.962;6.960;2023-11-18T03:52:11;45.60;;;15.40;;
35245;SDS011;21379;50.962;6.960;2023-11-18T03:54:38;45.38;;;15.48;;
35245;SDS011;21379;50.962;6.960;2023-11-18T03:57:05;53.20;;;17.20;;
35245;SDS011;21379;50.962;6.960;2023-11-18T03:59:31;43.92;;;15.32;;
35245;SDS011;21379;50.962;6.960;2023-11-18T04:01:58;46.15;;;15.23;;
35245;SDS011;21379;50.962;6.960;2023-11-18T04:04:25;48.15;;;15.60;;
35245;SDS011;21379;50.962;6.960;2023-11-18T04:06:55;44.55;;;15.20;;
35245;SDS011;21379;50.962;6.960;2023-11-18T04:09:21;45.58;;;15.65;;
35245;SDS011;21379;50.962;6.960;2023-11-18T04:11:48;43.55;;;14.45;;
35245;SDS011;21379;50.962;6.960;2023-11-18T04:14:15;49.05;;;15.80;;
35245;SDS011;21379;50.962;6.960;2023-11-18T04:16:42;46.95;;;15.65;;
35245;SDS011;21379;50.962;6.960;2023-11-18T04:19:11;50.40;;;17.30;;
35245;SDS011;21379;50.962;6.960;2023-11-18T04:21:38;50.50;;;16.23;;
35245;SDS011;21379;50.962;6.960;2023-11-18T04:24:07;49.08;;;15.65;;
35245;SDS011;21379;50.962;6.960;2023-11-18T04:26:34;49.17;;;15.82;;
35245;SDS011;21379;50.962;6.960;2023-11-18T04:29:03;46.08;;;14.43;;
35245;SDS011;21379;50.962;6.960;2023-11-18T04:31:30;49.08;;;16.92;;
35245;SDS011;21379;50.962;6.960;2023-11-18T04:33:57;52.05;;;15.75;;
35245;SDS011;21379;50.962;6.960;2023-11-18T04:36:23;49.40;;;14.10;;
35245;SDS011;21379;50.962;6.960;2023-11-18T04:38:51;40.50;;;14.15;;
35245;SDS011;21379;50.962;6.960;2023-11-18T04:41:20;45.70;;;15.05;;
35245;SDS011;21379;50.962;6.960;2023-11-18T04:43:48;47.95;;;15.10;;
35245;SDS011;21379;50.962;6.960;2023-11-18T04:46:15;48.40;;;15.60;;
35245;SDS011;21379;50.962;6.960;2023-11-18T04:48:42;53.00;;;14.63;;
35245;SDS011;21379;50.962;6.960;2023-11-18T04:51:09;47.75;;;15.82;;
35245;SDS011;21379;50.962;6.960;2023-11-18T04:56:04;50.72;;;15.23;;
35245;SDS011;21379;50.962;6.960;2023-11-18T04:58:36;44.28;;;15.05;;
35245;SDS011;21379;50.962;6.960;2023-11-18T05:01:03;42.70;;;15.48;;
35245;SDS011;21379;50.962;6.960;2023-11-18T05:03:30;50.20;;;16.95;;
35245;SDS011;21379;50.962;6.960;2023-11-18T05:05:58;48.10;;;15.70;;
35245;SDS011;21379;50.962;6.960;2023-11-18T05:08:24;48.60;;;15.63;;
35245;SDS011;21379;50.962;6.960;2023-11-18T05:10:51;53.40;;;17.52;;
35245;SDS011;21379;50.962;6.960;2023-11-18T05:13:19;44.72;;;15.55;;
35245;SDS011;21379;50.962;6.960;2023-11-18T05:15:48;44.00;;;15.10;;
35245;SDS011;21379;50.962;6.960;2023-11-18T05:20:42;47.33;;;15.43;;
35245;SDS011;21379;50.962;6.960;2023-11-18T05:23:09;46.50;;;14.82;;
35245;SDS011;21379;50.962;6.960;2023-11-18T05:25:36;47.65;;;16.00;;
35245;SDS011;21379;50.962;6.960;2023-11-18T05:28:03;46.60;;;15.98;;
35245;SDS011;21379;50.962;6.960;2023-11-18T05:30:33;56.08;;;17.90;;
35245;SDS011;21379;50.962;6.960;2023-11-18T05:33:03;50.33;;;16.38;;
35245;SDS011;21379;50.962;6.960;2023-11-18T05:35:30;45.08;;;15.98;;
35245;SDS011;21379;50.962;6.960;2023-11-18T05:37:58;42.50;;;15.20;;
35245;SDS011;21379;50.962;6.960;2023-11-18T05:40:25;49.67;;;16.13;;
35245;SDS011;21379;50.962;6.960;2023-11-18T05:42:52;45.53;;;16.15;;
35245;SDS011;21379;50.962;6.960;2023-11-18T05:45:20;51.13;;;16.15;;
35245;SDS011;21379;50.962;6.960;2023-11-18T05:47:57;48.05;;;16.30;;
35245;SDS011;21379;50.962;6.960;2023-11-18T05:50:25;44.00;;;14.30;;
35245;SDS011;21379;50.962;6.960;2023-11-18T05:52:52;41.55;;;13.20;;
35245;SDS011;21379;50.962;6.960;2023-11-18T05:55:19;41.92;;;14.05;;
35245;SDS011;21379;50.962;6.960;2023-11-18T05:57:45;39.45;;;13.43;;
35245;SDS011;21379;50.962;6.960;2023-11-18T06:00:12;41.80;;;14.52;;
35245;SDS011;21379;50.962;6.960;2023-11-18T06:02:40;41.53;;;13.60;;
35245;SDS011;21379;50.962;6.960;2023-11-18T06:05:07;41.30;;;14.25;;
35245;SDS011;21379;50.962;6.960;2023-11-18T06:07:36;37.95;;;13.65;;
35245;SDS011;21379;50.962;6.960;2023-11-18T06:10:05;44.08;;;14.85;;
35245;SDS011;21379;50.962;6.960;2023-11-18T06:12:33;39.95;;;13.15;;
35245;SDS011;21379;50.962;6.960;2023-11-18T06:15:02;37.67;;;14.70;;
35245;SDS011;21379;50.962;6.960;2023-11-18T06:17:29;37.00;;;13.77;;
35245;SDS011;21379;50.962;6.960;2023-11-18T06:19:56;41.63;;;14.82;;
35245;SDS011;21379;50.962;6.960;2023-11-18T06:22:23;37.00;;;13.27;;
35245;SDS011;21379;50.962;6.960;2023-11-18T06:24:52;42.08;;;13.77;;
35245;SDS011;21379;50.962;6.960;2023-11-18T06:29:48;34.25;;;13.15;;
35245;SDS011;21379;50.962;6.960;2023-11-18T06:32:15;40.67;;;13.90;;
35245;SDS011;21379;50.962;6.960;2023-11-18T06:34:42;44.00;;;13.20;;
35245;SDS011;21379;50.962;6.960;2023-11-18T06:37:09;43.85;;;14.65;;
35245;SDS011;21379;50.962;6.960;2023-11-18T06:39:40;35.75;;;13.27;;
35245;SDS011;21379;50.962;6.960;2023-11-18T06:42:10;37.08;;;13.60;;
35245;SDS011;21379;50.962;6.960;2023-11-18T06:44:37;42.47;;;14.55;;
35245;SDS011;21379;50.962;6.960;2023-11-18T06:47:04;37.38;;;13.70;;
35245;SDS011;21379;50.962;6.960;2023-11-18T06:49:31;39.55;;;14.63;;
35245;SDS011;21379;50.962;6.960;2023-11-18T06:51:59;43.35;;;14.40;;
35245;SDS011;21379;50.962;6.960;2023-11-18T06:54:28;39.85;;;13.27;;
35245;SDS011;21379;50.962;6.960;2023-11-18T06:56:55;40.45;;;14.68;;
35245;SDS011;21379;50.962;6.960;2023-11-18T06:59:23;31.65;;;12.80;;
35245;SDS011;21379;50.962;6.960;2023-11-18T07:01:50;32.28;;;13.80;;
35245;SDS011;21379;50.962;6.960;2023-11-18T07:04:17;39.25;;;13.95;;
35245;SDS011;21379;50.962;6.960;2023-11-18T07:06:44;37.88;;;13.30;;
35245;SDS011;21379;50.962;6.960;2023-11-18T07:09:11;31.58;;;11.95;;
35245;SDS011;21379;50.962;6.960;2023-11-18T07:11:42;32.90;;;12.13;;
35245;SDS011;21379;50.962;6.960;2023-11-18T07:14:09;31.27;;;13.05;;
35245;SDS011;21379;50.962;6.960;2023-11-18T07:16:38;36.70;;;13.05;;
35245;SDS011;21379;50.962;6.960;2023-11-18T07:19:05;36.58;;;12.38;;
35245;SDS011;21379;50.962;6.960;2023-11-18T07:21:32;31.33;;;12.65;;
35245;SDS011;21379;50.962;6.960;2023-11-18T07:23:59;37.50;;;13.10;;
35245;SDS011;21379;50.962;6.960;2023-11-18T07:26:27;33.22;;;12.73;;
35245;SDS011;21379;50.962;6.960;2023-11-18T07:28:54;32.22;;;11.55;;
35245;SDS011;21379;50.962;6.960;2023-11-18T07:31:21;37.88;;;12.75;;
35245;SDS011;21379;50.962;6.960;2023-11-18T07:33:49;32.40;;;11.68;;
35245;SDS011;21379;50.962;6.960;2023-11-18T07:36:16;29.35;;;11.27;;
35245;SDS011;21379;50.962;6.960;2023-11-18T07:38:45;33.00;;;12.35;;
35245;SDS011;21379;50.962;6.960;2023-11-18T07:41:11;29.98;;;10.70;;
35245;SDS011;21379;50.962;6.960;2023-11-18T07:43:48;33.10;;;11.30;;
35245;SDS011;21379;50.962;6.960;2023-11-18T07:46:16;30.30;;;11.65;;
35245;SDS011;21379;50.962;6.960;2023-11-18T07:48:42;31.60;;;11.38;;
35245;SDS011;21379;50.962;6.960;2023-11-18T07:51:10;27.80;;;11.85;;
35245;SDS011;21379;50.962;6.960;2023-11-18T07:53:39;25.23;;;11.15;;
35245;SDS011;21379;50.962;6.960;2023-11-18T07:56:07;29.08;;;10.93;;
35245;SDS011;21379;50.962;6.960;2023-11-18T07:58:36;31.92;;;11.55;;
35245;SDS011;21379;50.962;6.960;2023-11-18T08:01:03;26.55;;;10.73;;
35245;SDS011;21379;50.962;6.960;2023-11-18T08:03:32;27.90;;;11.35;;
35245;SDS011;21379;50.962;6.960;2023-11-18T08:05:59;26.15;;;10.13;;
35245;SDS011;21379;50.962;6.960;2023-11-18T08:08:28;24.17;;;10.55;;
35245;SDS011;21379;50.962;6.960;2023-11-18T08:10:55;26.63;;;10.02;;
35245;SDS011;21379;50.962;6.960;2023-11-18T08:13:23;23.48;;;10.02;;
35245;SDS011;21379;50.962;6.960;2023-11-18T08:15:50;22.98;;;10.45;;
35245;SDS011;21379;50.962;6.960;2023-11-18T08:18:17;26.40;;;10.18;;
35245;SDS011;21379;50.962;6.960;2023-11-18T08:20:46;27.55;;;10.77;;
35245;SDS011;21379;50.962;6.960;2023-11-18T08:23:13;24.77;;;10.30;;
35245;SDS011;21379;50.962;6.960;2023-11-18T08:25:41;25.52;;;9.75;;
35245;SDS011;21379;50.962;6.960;2023-11-18T08:28:09;22.73;;;9.68;;
35245;SDS011;21379;50.962;6.960;2023-11-18T08:30:37;25.67;;;10.95;;
35245;SDS011;21379;50.962;6.960;2023-11-18T08:33:04;24.85;;;10.23;;
35245;SDS011;21379;50.962;6.960;2023-11-18T08:35:34;25.08;;;10.00;;
35245;SDS011;21379;50.962;6.960;2023-11-18T08:38:01;26.77;;;10.88;;
35245;SDS011;21379;50.962;6.960;2023-11-18T08:40:29;26.63;;;10.00;;
35245;SDS011;21379;50.962;6.960;2023-11-18T08:42:57;24.42;;;9.45;;
35245;SDS011;21379;50.962;6.960;2023-11-18T08:45:24;24.23;;;9.60;;
35245;SDS011;21379;50.962;6.960;2023-11-18T08:47:54;22.48;;;9.23;;
35245;SDS011;21379;50.962;6.960;2023-11-18T08:50:21;21.05;;;8.90;;
35245;SDS011;21379;50.962;6.960;2023-11-18T08:52:50;22.80;;;9.55;;
35245;SDS011;21379;50.962;6.960;2023-11-18T08:55:19;17.60;;;8.02;;
35245;SDS011;21379;50.962;6.960;2023-11-18T08:57:46;23.48;;;9.32;;
35245;SDS011;21379;50.962;6.960;2023-11-18T09:00:26;21.45;;;8.60;;
35245;SDS011;21379;50.962;6.960;2023-11-18T09:05:42;18.60;;;8.18;;
35245;SDS011;21379;50.962;6.960;2023-11-18T09:08:22;21.65;;;9.05;;
35245;SDS011;21379;50.962;6.960;2023-11-18T09:10:50;20.05;;;8.13;;
35245;SDS011;21379;50.962;6.960;2023-11-18T09:13:19;21.52;;;8.65;;
35245;SDS011;21379;50.962;6.960;2023-11-18T09:15:48;18.85;;;8.43;;
35245;SDS011;21379;50.962;6.960;2023-11-18T09:18:15;21.38;;;8.90;;
35245;SDS011;21379;50.962;6.960;2023-11-18T09:20:43;18.33;;;8.23;;
35245;SDS011;21379;50.962;6.960;2023-11-18T09:23:10;23.23;;;8.88;;
35245;SDS011;21379;50.962;6.960;2023-11-18T09:25:38;18.00;;;8.63;;
35245;SDS011;21379;50.962;6.960;2023-11-18T09:30:36;18.23;;;7.88;;
35245;SDS011;21379;50.962;6.960;2023-11-18T09:33:16;24.17;;;9.85;;
35245;SDS011;21379;50.962;6.960;2023-11-18T09:35:53;17.27;;;7.60;;
35245;SDS011;21379;50.962;6.960;2023-11-18T09:38:24;17.88;;;8.30;;
35245;SDS011;21379;50.962;6.960;2023-11-18T09:40:53;19.42;;;9.00;;
35245;SDS011;21379;50.962;6.960;2023-11-18T09:43:20;20.40;;;8.63;;
35245;SDS011;21379;50.962;6.960;2023-11-18T09:45:47;17.85;;;8.95;;
35245;SDS011;21379;50.962;6.960;2023-11-18T09:48:17;24.33;;;9.40;;
35245;SDS011;21379;50.962;6.960;2023-11-18T09:50:50;18.85;;;8.80;;
35245;SDS011;21379;50.962;6.960;2023-11-18T09:53:18;16.33;;;8.60;;
35245;SDS011;21379;50.962;6.960;2023-11-18T09:55:47;16.02;;;7.93;;
35245;SDS011;21379;50.962;6.960;2023-11-18T09:58:20;15.60;;;7.97;;
35245;SDS011;21379;50.962;6.960;2023-11-18T10:00:49;16.33;;;8.13;;
35245;SDS011;21379;50.962;6.960;2023-11-18T10:05:47;17.80;;;8.38;;
35245;SDS011;21379;50.962;6.960;2023-11-18T10:08:15;19.70;;;7.82;;
35245;SDS011;21379;50.962;6.960;2023-11-18T10:10:44;15.40;;;7.35;;
35245;SDS011;21379;50.962;6.960;2023-11-18T10:13:11;16.80;;;8.30;;
35245;SDS011;21379;50.962;6.960;2023-11-18T10:15:46;19.17;;;8.98;;
35245;SDS011;21379;50.962;6.960;2023-11-18T10:18:18;13.25;;;7.13;;
35245;SDS011;21379;50.962;6.960;2023-11-18T10:20:48;16.58;;;7.40;;
35245;SDS011;21379;50.962;6.960;2023-11-18T10:23:16;14.15;;;7.85;;
35245;SDS011;21379;50.962;6.960;2023-11-18T10:25:46;20.35;;;7.85;;
35245;SDS011;21379;50.962;6.960;2023-11-18T10:28:22;15.82;;;7.40;;
35245;SDS011;21379;50.962;6.960;2023-11-18T10:30:52;15.32;;;7.30;;
35245;SDS011;21379;50.962;6.960;2023-11-18T10:33:20;15.88;;;7.50;;
35245;SDS011;21379;50.962;6.960;2023-11-18T10:35:48;14.90;;;6.68;;
35245;SDS011;21379;50.962;6.960;2023-11-18T10:38:17;13.27;;;6.30;;
35245;SDS011;21379;50.962;6.960;2023-11-18T10:40:44;14.25;;;7.13;;
35245;SDS011;21379;50.962;6.960;2023-11-18T10:43:11;14.38;;;6.82;;
35245;SDS011;21379;50.962;6.960;2023-11-18T10:45:37;12.25;;;6.05;;
35245;SDS011;21379;50.962;6.960;2023-11-18T10:48:05;12.73;;;6.38;;
35245;SDS011;21379;50.962;6.960;2023-11-18T10:50:34;13.55;;;6.10;;
35245;SDS011;21379;50.962;6.960;2023-11-18T10:53:01;11.40;;;5.35;;
35245;SDS011;21379;50.962;6.960;2023-11-18T10:55:36;12.32;;;5.78;;
35245;SDS011;21379;50.962;6.960;2023-11-18T10:58:03;11.25;;;5.50;;
35245;SDS011;21379;50.962;6.960;2023-11-18T11:00:40;12.35;;;5.30;;
35245;SDS011;21379;50.962;6.960;2023-11-18T11:03:12;10.80;;;5.35;;
35245;SDS011;21379;50.962;6.960;2023-11-18T11:05:40;14.45;;;5.95;;
35245;SDS011;21379;50.962;6.960;2023-11-18T11:08:09;15.85;;;5.60;;
35245;SDS011;21379;50.962;6.960;2023-11-18T11:10:39;10.98;;;5.25;;
35245;SDS011;21379;50.962;6.960;2023-11-18T11:13:08;11.48;;;5.65;;
35245;SDS011;21379;50.962;6.960;2023-11-18T11:15:42;11.43;;;5.45;;
35245;SDS011;21379;50.962;6.960;2023-11-18T11:18:11;9.40;;;5.20;;
35245;SDS011;21379;50.962;6.960;2023-11-18T11:20:47;10.05;;;5.28;;
35245;SDS011;21379;50.962;6.960;2023-11-18T11:23:21;13.63;;;5.63;;
35245;SDS011;21379;50.962;6.960;2023-11-18T11:26:00;11.35;;;5.75;;
35245;SDS011;21379;50.962;6.960;2023-11-18T11:28:33;12.43;;;6.47;;
35245;SDS011;21379;50.962;6.960;2023-11-18T11:31:08;10.68;;;6.30;;
35245;SDS011;21379;50.962;6.960;2023-11-18T11:33:42;12.50;;;5.90;;
35245;SDS011;21379;50.962;6.960;2023-11-18T11:36:12;13.32;;;7.05;;
35245;SDS011;21379;50.962;6.960;2023-11-18T11:38:48;13.27;;;6.47;;
35245;SDS011;21379;50.962;6.960;2023-11-18T11:41:16;11.98;;;6.00;;
35245;SDS011;21379;50.962;6.960;2023-11-18T11:43:51;14.02;;;7.15;;
35245;SDS011;21379;50.962;6.960;2023-11-18T11:46:20;13.13;;;6.10;;
35245;SDS011;21379;50.962;6.960;2023-11-18T11:48:48;14.02;;;6.45;;
35245;SDS011;21379;50.962;6.960;2023-11-18T11:51:22;10.60;;;6.28;;
35245;SDS011;21379;50.962;6.960;2023-11-18T11:54:01;10.88;;;6.25;;
35245;SDS011;21379;50.962;6.960;2023-11-18T11:56:40;12.25;;;6.90;;
35245;SDS011;21379;50.962;6.960;2023-11-18T11:59:08;17.88;;;6.70;;
35245;SDS011;21379;50.962;6.960;2023-11-18T12:01:36;11.95;;;5.70;;
35245;SDS011;21379;50.962;6.960;2023-11-18T12:04:04;10.55;;;5.90;;
35245;SDS011;21379;50.962;6.960;2023-11-18T12:06:40;12.70;;;6.18;;
35245;SDS011;21379;50.962;6.960;2023-11-18T12:09:09;10.13;;;6.05;;
35245;SDS011;21379;50.962;6.960;2023-11-18T12:11:44;10.35;;;6.35;;
35245;SDS011;21379;50.962;6.960;2023-11-18T12:14:14;15.32;;;6.45;;
35245;SDS011;21379;50.962;6.960;2023-11-18T12:17:01;11.85;;;6.07;;
35245;SDS011;21379;50.962;6.960;2023-11-18T12:19:34;11.30;;;6.03;;
35245;SDS011;21379;50.962;6.960;2023-11-18T12:22:15;10.85;;;6.00;;
35245;SDS011;21379;50.962;6.960;2023-11-18T12:27:57;12.48;;;7.32;;
35245;SDS011;21379;50.962;6.960;2023-11-18T12:30:37;10.10;;;5.65;;
35245;SDS011;21379;50.962;6.960;2023-11-18T12:33:06;14.43;;;6.30;;
35245;SDS011;21379;50.962;6.960;2023-11-18T12:35:37;14.20;;;5.72;;
35245;SDS011;21379;50.962;6.960;2023-11-18T12:41:00;10.38;;;4.72;;
35245;SDS011;21379;50.962;6.960;2023-11-18T12:43:42;11.65;;;5.97;;
35245;SDS011;21379;50.962;6.960;2023-11-18T12:46:37;12.20;;;5.80;;
35245;SDS011;21379;50.962;6.960;2023-11-18T12:49:16;14.43;;;6.03;;
35245;SDS011;21379;50.962;6.960;2023-11-18T12:51:47;10.35;;;5.20;;
35245;SDS011;21379;50.962;6.960;2023-11-18T12:54:16;8.77;;;5.22;;
35245;SDS011;21379;50.962;6.960;2023-11-18T12:56:43;9.98;;;5.38;;
35245;SDS011;21379;50.962;6.960;2023-11-18T12:59:16;9.93;;;4.82;;
35245;SDS011;21379;50.962;6.960;2023-11-18T13:01:44;9.10;;;5.10;;
35245;SDS011;21379;50.962;6.960;2023-11-18T13:04:17;11.85;;;4.50;;
35245;SDS011;21379;50.962;6.960;2023-11-18T13:06:45;8.30;;;4.65;;
35245;SDS011;21379;50.962;6.960;2023-11-18T13:09:11;10.55;;;4.88;;
35245;SDS011;21379;50.962;6.960;2023-11-18T13:11:52;10.05;;;4.13;;
35245;SDS011;21379;50.962;6.960;2023-11-18T13:14:21;10.68;;;4.10;;
35245;SDS011;21379;50.962;6.960;2023-11-18T13:16:50;8.07;;;4.07;;
35245;SDS011;21379;50.962;6.960;2023-11-18T13:19:24;9.98;;;4.70;;
35245;SDS011;21379;50.962;6.960;2023-11-18T13:21:51;10.32;;;4.80;;
35245;SDS011;21379;50.962;6.960;2023-11-18T13:24:18;7.03;;;4.30;;
35245;SDS011;21379;50.962;6.960;2023-11-18T13:26:45;11.90;;;4.45;;
35245;SDS011;21379;50.962;6.960;2023-11-18T13:29:13;10.18;;;4.60;;
35245;SDS011;21379;50.962;6.960;2023-11-18T13:31:41;11.82;;;4.28;;
35245;SDS011;21379;50.962;6.960;2023-11-18T13:34:08;10.02;;;4.72;;
35245;SDS011;21379;50.962;6.960;2023-11-18T13:36:35;7.10;;;3.72;;
35245;SDS011;21379;50.962;6.960;2023-11-18T13:39:03;8.80;;;4.05;;
35245;SDS011;21379;50.962;6.960;2023-11-18T13:41:32;9.85;;;4.60;;
35245;SDS011;21379;50.962;6.960;2023-11-18T13:44:01;8.25;;;4.45;;
35245;SDS011;21379;50.962;6.960;2023-11-18T13:46:29;10.50;;;4.55;;
35245;SDS011;21379;50.962;6.960;2023-11-18T13:51:24;10.27;;;4.20;;
35245;SDS011;21379;50.962;6.960;2023-11-18T13:53:51;9.60;;;3.63;;
35245;SDS011;21379;50.962;6.960;2023-11-18T13:56:18;8.43;;;3.50;;
35245;SDS011;21379;50.962;6.960;2023-11-18T13:58:45;8.63;;;3.53;;
35245;SDS011;21379;50.962;6.960;2023-11-18T14:01:13;7.05;;;3.20;;
35245;SDS011;21379;50.962;6.960;2023-11-18T14:03:41;6.63;;;3.60;;
35245;SDS011;21379;50.962;6.960;2023-11-18T14:06:09;7.03;;;3.40;;
35245;SDS011;21379;50.962;6.960;2023-11-18T14:08:37;5.60;;;3.30;;
35245;SDS011;21379;50.962;6.960;2023-11-18T14:11:04;9.20;;;3.72;;
35245;SDS011;21379;50.962;6.960;2023-11-18T14:13:34;6.40;;;3.78;;
35245;SDS011;21379;50.962;6.960;2023-11-18T14:16:00;9.80;;;3.60;;
35245;SDS011;21379;50.962;6.960;2023-11-18T14:18:27;6.72;;;3.35;;
35245;SDS011;21379;50.962;6.960;2023-11-18T14:20:55;18.10;;;5.78;;
35245;SDS011;21379;50.962;6.960;2023-11-18T14:23:26;8.90;;;3.92;;
35245;SDS011;21379;50.962;6.960;2023-11-18T14:26:10;30.20;;;10.02;;
35245;SDS011;21379;50.962;6.960;2023-11-18T14:28:40;13.43;;;3.90;;
35245;SDS011;21379;50.962;6.960;2023-11-18T14:31:09;7.35;;;3.78;;
35245;SDS011;21379;50.962;6.960;2023-11-18T14:33:36;9.98;;;3.53;;
35245;SDS011;21379;50.962;6.960;2023-11-18T14:36:06;7.03;;;3.83;;
35245;SDS011;21379;50.962;6.960;2023-11-18T14:38:34;8.88;;;4.30;;
35245;SDS011;21379;50.962;6.960;2023-11-18T14:41:04;8.40;;;4.30;;
35245;SDS011;21379;50.962;6.960;2023-11-18T14:43:32;10.50;;;3.28;;
35245;SDS011;21379;50.962;6.960;2023-11-18T14:45:59;8.95;;;3.40;;
35245;SDS011;21379;50.962;6.960;2023-11-18T14:48:26;5.50;;;3.13;;
35245;SDS011;21379;50.962;6.960;2023-11-18T14:50:53;8.05;;;3.67;;
35245;SDS011;21379;50.962;6.960;2023-11-18T14:53:23;7.00;;;3.33;;
35245;SDS011;21379;50.962;6.960;2023-11-18T14:55:50;9.35;;;3.60;;
35245;SDS011;21379;50.962;6.960;2023-11-18T14:58:16;10.15;;;3.28;;
35245;SDS011;21379;50.962;6.960;2023-11-18T15:00:44;9.85;;;3.95;;
35245;SDS011;21379;50.962;6.960;2023-11-18T15:03:12;7.65;;;3.40;;
35245;SDS011;21379;50.962;6.960;2023-11-18T15:05:41;8.27;;;3.78;;
35245;SDS011;21379;50.962;6.960;2023-11-18T15:08:09;6.72;;;3.17;;
35245;SDS011;21379;50.962;6.960;2023-11-18T15:10:39;6.75;;;3.75;;
35245;SDS011;21379;50.962;6.960;2023-11-18T15:13:07;7.28;;;3.60;;